Time;durP1;ratioP1;P1;durP2;ratioP2;P2;SDS_P1;SDS_P2;PMS_P1;PMS_P2;Temp;Humidity;BMP_temperature;BMP_pressure;BME280_temperature;BME280_humidity;BME280_pressure;Samples;Min_cycle;Max_cycle;Signal;HPM_P1;HPM_P2
2023/06/17 00:00:32;;;;;;;4.63;3.55;;;23.30;50.50;;;;;;5114683;28;20248;-78
2023/06/17 00:03:00;;;;;;;4.65;3.50;;;23.20;50.40;;;;;;5114743;28;20189;-77
2023/06/17 00:05:27;;;;;;;4.78;3.70;;;23.20;51.00;;;;;;5114044;28;20710;-78
2023/06/17 00:07:54;;;;;;;4.70;3.58;;;23.20;50.30;;;;;;5114721;28;20276;-77
2023/06/17 00:10:21;;;;;;;4.72;3.67;;;23.20;50.40;;;;;;5114628;28;20286;-78
2023/06/17 00:12:49;;;;;;;4.85;3.45;;;23.20;50.40;;;;;;5114719;28;20265;-78
2023/06/17 00:15:17;;;;;;;4.35;3.63;;;23.20;50.30;;;;;;5114150;28;20698;-78
2023/06/17 00:17:46;;;;;;;4.93;3.65;;;23.20;50.40;;;;;;5114316;28;20193;-77
2023/06/17 00:20:16;;;;;;;3.47;3.17;;;23.20;50.40;;;;;;5113858;28;20301;-77
2023/06/17 00:22:44;;;;;;;4.00;3.60;;;23.20;50.20;;;;;;5114224;28;20312;-77
2023/06/17 00:25:12;;;;;;;3.85;3.45;;;23.20;50.90;;;;;;5114259;28;20213;-78
2023/06/17 00:27:40;;;;;;;6.32;3.80;;;23.10;50.20;;;;;;5114175;28;20189;-77
2023/06/17 00:30:08;;;;;;;5.30;3.67;;;23.20;50.90;;;;;;5114010;28;20220;-78
2023/06/17 00:32:36;;;;;;;4.55;3.60;;;23.10;50.30;;;;;;5114126;28;20663;-77
2023/06/17 00:35:04;;;;;;;3.70;3.40;;;23.10;50.20;;;;;;5114005;28;20296;-78
2023/06/17 00:37:33;;;;;;;5.82;3.72;;;23.10;50.20;;;;;;5113932;28;20185;-78
2023/06/17 00:40:00;;;;;;;4.95;4.05;;;23.20;50.30;;;;;;5113644;28;20303;-78
2023/06/17 00:42:27;;;;;;;4.45;3.40;;;23.20;50.20;;;;;;5113696;28;20244;-77
2023/06/17 00:44:54;;;;;;;4.65;3.78;;;23.10;50.10;;;;;;5113476;28;20278;-78
2023/06/17 00:47:23;;;;;;;5.40;3.92;;;23.10;50.20;;;;;;5113894;28;20272;-78
2023/06/17 00:49:53;;;;;;;5.57;3.92;;;23.10;50.10;;;;;;5113591;28;20229;-77
2023/06/17 00:52:21;;;;;;;6.43;3.92;;;23.10;50.20;;;;;;5113509;28;20185;-78
2023/06/17 00:54:49;;;;;;;4.82;3.95;;;23.10;50.20;;;;;;5113764;28;20213;-78
2023/06/17 00:57:16;;;;;;;4.20;3.70;;;23.10;50.10;;;;;;5113992;28;20189;-78
2023/06/17 00:59:45;;;;;;;4.35;3.58;;;23.10;50.20;;;;;;5113328;27;20697;-77
2023/06/17 01:02:13;;;;;;;4.05;3.58;;;23.10;50.20;;;;;;5097111;28;20565;-77
2023/06/17 01:04:42;;;;;;;5.22;3.60;;;23.10;50.10;;;;;;5093493;28;20221;-77
2023/06/17 01:07:23;;;;;;;5.60;3.92;;;23.10;50.20;;;;;;5113175;28;20197;-77
2023/06/17 01:10:02;;;;;;;4.20;3.50;;;23.10;50.10;;;;;;5113171;28;20331;-77
2023/06/17 01:12:30;;;;;;;4.82;3.95;;;23.10;50.20;;;;;;5113817;28;20239;-77
2023/06/17 01:15:01;;;;;;;4.50;3.63;;;23.10;50.20;;;;;;5112951;28;20662;-78
2023/06/17 01:17:28;;;;;;;4.63;3.70;;;23.10;50.20;;;;;;5113344;28;20235;-77
2023/06/17 01:19:56;;;;;;;4.82;3.85;;;23.10;50.10;;;;;;5113217;28;20627;-77
2023/06/17 01:22:24;;;;;;;6.68;3.65;;;23.10;50.20;;;;;;5115294;27;20662;-78
2023/06/17 01:24:53;;;;;;;4.38;3.60;;;23.00;50.10;;;;;;5133887;27;20641;-78
2023/06/17 01:27:23;;;;;;;4.78;4.28;;;23.10;50.20;;;;;;5113207;28;20193;-78
2023/06/17 01:29:50;;;;;;;4.47;3.45;;;23.10;50.20;;;;;;5113043;28;20229;-77
2023/06/17 01:32:17;;;;;;;4.65;3.60;;;23.10;50.20;;;;;;5133134;27;20203;-78
2023/06/17 01:34:50;;;;;;;4.30;3.90;;;23.00;50.10;;;;;;5133807;27;20216;-77
2023/06/17 01:37:29;;;;;;;6.80;3.95;;;23.00;50.10;;;;;;5133581;27;20231;-77
2023/06/17 01:40:01;;;;;;;7.50;4.10;;;23.00;50.50;;;;;;5133801;27;20216;-76
2023/06/17 01:42:32;;;;;;;3.92;3.50;;;23.00;50.20;;;;;;5112759;28;20238;-78
2023/06/17 01:45:00;;;;;;;5.57;3.80;;;23.00;50.10;;;;;;5113032;28;20213;-77
2023/06/17 01:47:28;;;;;;;4.57;4.03;;;23.00;50.10;;;;;;5132558;27;20595;-77
2023/06/17 01:49:59;;;;;;;4.45;3.85;;;23.00;50.20;;;;;;5133506;27;20315;-77
2023/06/17 01:52:26;;;;;;;3.88;3.47;;;23.00;50.20;;;;;;5133004;27;20181;-77
2023/06/17 01:54:53;;;;;;;3.97;3.58;;;23.00;50.20;;;;;;5133421;27;20303;-77
2023/06/17 01:57:21;;;;;;;4.32;3.90;;;23.00;50.20;;;;;;5133137;27;20263;-77
2023/06/17 01:59:48;;;;;;;4.55;3.55;;;23.00;50.20;;;;;;5133068;27;20304;-77
2023/06/17 02:02:16;;;;;;;6.57;3.75;;;23.00;50.20;;;;;;5133001;27;20287;-78
2023/06/17 02:04:42;;;;;;;4.32;3.45;;;23.00;50.20;;;;;;5132935;27;20219;-77
2023/06/17 02:07:10;;;;;;;4.30;3.90;;;23.00;50.20;;;;;;5132180;27;20725;-78
2023/06/17 02:09:37;;;;;;;3.97;3.55;;;23.00;50.20;;;;;;5132784;27;20239;-78
2023/06/17 02:12:06;;;;;;;4.13;3.60;;;23.00;50.20;;;;;;5132851;27;20188;-78
2023/06/17 02:14:34;;;;;;;3.90;3.50;;;23.00;50.20;;;;;;5096621;27;20660;-79
2023/06/17 02:17:03;;;;;;;4.90;3.83;;;23.00;50.20;;;;;;5132592;27;20268;-77
2023/06/17 02:19:31;;;;;;;5.47;3.92;;;23.00;50.30;;;;;;5132401;27;20216;-77
2023/06/17 02:21:59;;;;;;;4.18;3.78;;;23.00;50.20;;;;;;5132708;28;20185;-77
2023/06/17 02:24:27;;;;;;;4.40;4.00;;;23.00;50.20;;;;;;5132510;28;20231;-77
2023/06/17 02:26:54;;;;;;;4.72;3.90;;;23.00;50.30;;;;;;5132890;28;20193;-77
2023/06/17 02:29:21;;;;;;;5.05;3.92;;;23.00;50.20;;;;;;5132603;28;20224;-77
2023/06/17 02:31:49;;;;;;;5.70;3.88;;;22.90;50.20;;;;;;5132815;28;20342;-77
2023/06/17 02:34:16;;;;;;;5.32;3.75;;;22.90;50.20;;;;;;5132574;28;20269;-77
2023/06/17 02:36:44;;;;;;;4.15;3.75;;;23.00;50.30;;;;;;5132645;28;20185;-77
2023/06/17 02:39:11;;;;;;;4.43;3.83;;;23.00;50.30;;;;;;5132370;28;20192;-77
2023/06/17 02:41:38;;;;;;;4.20;3.80;;;23.00;50.30;;;;;;5132449;28;20191;-77
2023/06/17 02:44:05;;;;;;;4.20;3.80;;;23.00;50.40;;;;;;5132739;28;20624;-77
2023/06/17 02:46:32;;;;;;;5.78;3.80;;;22.90;50.30;;;;;;5132543;28;20220;-77
2023/06/17 02:49:01;;;;;;;4.10;3.70;;;23.00;50.40;;;;;;5132653;28;20272;-77
2023/06/17 02:51:28;;;;;;;4.97;4.00;;;22.90;51.00;;;;;;5132060;28;20212;-78
2023/06/17 02:53:55;;;;;;;5.72;3.60;;;22.90;50.30;;;;;;5132795;28;20271;-77
2023/06/17 02:56:22;;;;;;;6.13;3.90;;;22.90;50.30;;;;;;5132629;28;20223;-77
2023/06/17 02:58:50;;;;;;;7.15;4.30;;;22.90;50.30;;;;;;5132585;28;20187;-78
2023/06/17 03:01:17;;;;;;;5.20;4.00;;;22.90;50.30;;;;;;5132466;28;20240;-77
2023/06/17 03:03:45;;;;;;;5.55;4.10;;;22.90;50.50;;;;;;5132616;28;20273;-78
2023/06/17 03:06:14;;;;;;;4.43;4.00;;;22.90;50.50;;;;;;5132115;28;20818;-78
2023/06/17 03:08:43;;;;;;;5.20;3.60;;;22.90;50.50;;;;;;5132696;28;20189;-78
2023/06/17 03:11:10;;;;;;;8.02;4.10;;;22.90;50.50;;;;;;5132261;28;20232;-77
2023/06/17 03:13:37;;;;;;;5.70;4.45;;;22.90;50.50;;;;;;5132387;28;20275;-77
2023/06/17 03:16:05;;;;;;;6.07;4.15;;;22.90;50.50;;;;;;5132203;28;20293;-77
2023/06/17 03:18:32;;;;;;;4.07;3.60;;;22.90;50.50;;;;;;5132551;28;20187;-78
2023/06/17 03:21:00;;;;;;;3.47;3.17;;;22.90;50.50;;;;;;5132536;28;20216;-77
2023/06/17 03:23:28;;;;;;;4.75;3.88;;;22.80;50.50;;;;;;5132307;28;20352;-77
2023/06/17 03:25:55;;;;;;;4.25;3.72;;;22.90;50.60;;;;;;5132078;28;20663;-77
2023/06/17 03:28:22;;;;;;;5.28;4.10;;;22.90;50.60;;;;;;5132347;28;20272;-77
2023/06/17 03:30:49;;;;;;;4.30;3.90;;;22.90;50.60;;;;;;5133916;27;20322;-77
2023/06/17 03:33:16;;;;;;;5.65;3.83;;;22.80;50.60;;;;;;5135903;27;20188;-78
2023/06/17 03:35:43;;;;;;;4.45;4.00;;;22.80;50.60;;;;;;5135780;27;20247;-78
2023/06/17 03:38:11;;;;;;;4.13;3.63;;;22.80;50.60;;;;;;5115491;28;20274;-76
2023/06/17 03:40:39;;;;;;;4.45;4.05;;;22.80;50.60;;;;;;5115226;28;20244;-77
2023/06/17 03:43:06;;;;;;;4.47;4.07;;;22.90;50.80;;;;;;5134550;27;20634;-77
2023/06/17 03:45:35;;;;;;;4.75;3.63;;;22.80;50.80;;;;;;5135622;27;20214;-78
2023/06/17 03:48:02;;;;;;;5.22;3.90;;;22.80;50.70;;;;;;5135124;27;20237;-77
2023/06/17 03:50:29;;;;;;;4.38;3.92;;;22.90;50.80;;;;;;5135310;27;20745;-78
2023/06/17 03:52:56;;;;;;;4.20;3.80;;;22.80;50.80;;;;;;5135470;27;20276;-77
2023/06/17 03:55:24;;;;;;;5.00;4.00;;;22.80;50.80;;;;;;5135768;27;20295;-78
2023/06/17 03:57:53;;;;;;;5.55;3.67;;;22.80;50.90;;;;;;5134750;27;20185;-78
2023/06/17 04:00:20;;;;;;;4.95;4.03;;;22.80;50.90;;;;;;5135453;27;20600;-77
2023/06/17 04:02:49;;;;;;;4.65;4.03;;;22.80;50.90;;;;;;5135164;27;20192;-77
2023/06/17 04:05:17;;;;;;;4.80;4.20;;;22.80;51.00;;;;;;5135140;27;20212;-77
2023/06/17 04:07:44;;;;;;;5.47;3.97;;;22.80;51.00;;;;;;5134946;27;20706;-77
2023/06/17 04:10:11;;;;;;;4.40;3.97;;;22.80;51.00;;;;;;5134940;27;20760;-78
2023/06/17 04:12:39;;;;;;;3.90;3.50;;;22.80;51.00;;;;;;5134821;27;20279;-78
2023/06/17 04:15:08;;;;;;;4.40;4.00;;;22.80;51.00;;;;;;5135295;27;20303;-78
2023/06/17 04:17:37;;;;;;;4.57;4.18;;;22.80;51.10;;;;;;5134896;27;20185;-78
2023/06/17 04:20:10;;;;;;;4.07;3.67;;;22.80;51.20;;;;;;5135285;27;20220;-77
2023/06/17 04:22:37;;;;;;;4.38;3.97;;;22.80;51.20;;;;;;5134653;27;20288;-77
2023/06/17 04:25:05;;;;;;;4.88;4.07;;;22.80;51.20;;;;;;5135164;27;20556;-77
2023/06/17 04:27:32;;;;;;;4.78;3.85;;;22.80;51.30;;;;;;5134969;27;20204;-78
2023/06/17 04:30:01;;;;;;;4.68;3.85;;;22.80;51.30;;;;;;5134844;27;20228;-77
2023/06/17 04:32:29;;;;;;;6.28;3.70;;;22.80;51.30;;;;;;5134758;27;20184;-77
2023/06/17 04:34:56;;;;;;;5.07;3.92;;;22.80;51.30;;;;;;5134403;27;20303;-77
2023/06/17 04:37:23;;;;;;;5.38;3.90;;;22.80;51.40;;;;;;5134441;27;20295;-78
2023/06/17 04:39:52;;;;;;;5.07;3.70;;;22.80;51.40;;;;;;5134585;27;20299;-78
2023/06/17 04:42:20;;;;;;;4.03;3.63;;;22.80;51.40;;;;;;5133633;27;20275;-77
2023/06/17 04:44:48;;;;;;;4.13;3.72;;;22.80;51.50;;;;;;5134632;27;20223;-78
2023/06/17 04:47:16;;;;;;;5.10;3.85;;;22.80;51.50;;;;;;5134249;27;20185;-77
2023/06/17 04:49:45;;;;;;;4.97;4.20;;;22.80;51.50;;;;;;5134399;27;20208;-77
2023/06/17 04:52:12;;;;;;;4.30;3.60;;;22.80;51.60;;;;;;5134206;27;20212;-77
2023/06/17 04:54:39;;;;;;;5.03;4.38;;;22.70;51.60;;;;;;5133977;27;20223;-77
2023/06/17 04:57:07;;;;;;;5.20;4.10;;;22.70;52.20;;;;;;5134245;27;20185;-78
2023/06/17 04:59:34;;;;;;;5.13;4.30;;;22.70;51.60;;;;;;5133747;27;20764;-77
2023/06/17 05:02:01;;;;;;;4.75;3.70;;;22.80;51.70;;;;;;5133721;27;20272;-78
2023/06/17 05:04:28;;;;;;;5.07;4.32;;;22.70;51.60;;;;;;5134409;27;20191;-77
2023/06/17 05:06:57;;;;;;;4.70;4.20;;;22.80;51.70;;;;;;5133859;27;20193;-77
2023/06/17 05:09:24;;;;;;;4.38;3.88;;;22.70;51.60;;;;;;5133835;27;20716;-77
2023/06/17 05:11:51;;;;;;;4.85;3.90;;;22.70;51.70;;;;;;5133911;27;20204;-77
2023/06/17 05:14:18;;;;;;;6.07;4.28;;;22.80;51.70;;;;;;5133854;27;20185;-77
2023/06/17 05:16:45;;;;;;;6.15;3.97;;;22.70;51.60;;;;;;5133950;27;20275;-77
2023/06/17 05:19:12;;;;;;;6.53;4.03;;;22.70;51.80;;;;;;5133984;27;20224;-78
2023/06/17 05:21:39;;;;;;;4.30;3.90;;;22.70;51.70;;;;;;5133480;27;20238;-77
2023/06/17 05:24:07;;;;;;;4.95;3.90;;;22.70;51.80;;;;;;5133640;27;20307;-77
2023/06/17 05:26:34;;;;;;;4.57;3.72;;;22.70;51.80;;;;;;5133208;27;20218;-77
2023/06/17 05:29:01;;;;;;;10.05;3.65;;;22.70;51.80;;;;;;5133842;27;20268;-78
2023/06/17 05:31:28;;;;;;;4.22;3.72;;;22.70;52.50;;;;;;5133577;27;20315;-77
2023/06/17 05:33:55;;;;;;;6.25;3.88;;;22.70;51.90;;;;;;5133423;27;20203;-77
2023/06/17 05:36:22;;;;;;;5.85;4.03;;;22.70;51.90;;;;;;5133900;27;20212;-77
2023/06/17 05:38:49;;;;;;;4.60;3.72;;;22.70;51.90;;;;;;5133013;27;20194;-78
2023/06/17 05:41:17;;;;;;;4.32;3.85;;;22.70;52.00;;;;;;5133120;27;20731;-77
2023/06/17 05:43:46;;;;;;;4.13;3.72;;;22.70;52.00;;;;;;5133193;27;20188;-77
2023/06/17 05:46:13;;;;;;;4.50;4.10;;;22.70;52.00;;;;;;5133037;27;20784;-76
2023/06/17 05:48:40;;;;;;;5.90;4.05;;;22.70;52.10;;;;;;5133023;27;20199;-78
2023/06/17 05:51:07;;;;;;;4.20;3.80;;;22.70;52.10;;;;;;5133255;27;20263;-77
2023/06/17 05:53:34;;;;;;;4.70;4.00;;;22.70;52.70;;;;;;5133215;27;20184;-78
2023/06/17 05:56:00;;;;;;;4.15;3.75;;;22.70;52.10;;;;;;5133417;27;20226;-77
2023/06/17 05:58:30;;;;;;;4.28;3.88;;;22.70;52.20;;;;;;5132849;27;20726;-77
2023/06/17 06:00:57;;;;;;;4.45;3.75;;;22.70;52.10;;;;;;5132835;27;20248;-77
2023/06/17 06:03:24;;;;;;;4.32;3.88;;;22.70;52.20;;;;;;5133179;27;20195;-78
2023/06/17 06:05:51;;;;;;;4.82;4.32;;;22.70;52.30;;;;;;5133099;27;20220;-77
2023/06/17 06:08:17;;;;;;;3.60;3.25;;;22.70;52.20;;;;;;5132994;27;20188;-78
2023/06/17 06:10:44;;;;;;;5.57;4.03;;;22.70;52.30;;;;;;5133152;27;20320;-78
2023/06/17 06:13:12;;;;;;;5.03;3.90;;;22.70;52.30;;;;;;5132981;27;20220;-78
2023/06/17 06:15:40;;;;;;;4.00;3.60;;;22.70;52.30;;;;;;5133299;27;20215;-77
2023/06/17 06:18:07;;;;;;;4.82;3.65;;;22.60;52.30;;;;;;5132864;27;20279;-77
2023/06/17 06:20:34;;;;;;;4.78;3.90;;;22.70;52.40;;;;;;5132755;27;20294;-78
2023/06/17 06:23:01;;;;;;;4.72;4.15;;;22.70;52.40;;;;;;5132175;28;20799;-77
2023/06/17 06:25:28;;;;;;;6.28;4.00;;;22.70;52.50;;;;;;5132887;28;20223;-77
2023/06/17 06:27:55;;;;;;;5.10;3.63;;;22.70;52.50;;;;;;5132893;28;20220;-78
2023/06/17 06:30:22;;;;;;;6.65;3.92;;;22.70;52.60;;;;;;5132850;28;20303;-78
2023/06/17 06:32:50;;;;;;;4.22;3.83;;;22.70;53.20;;;;;;5132797;28;20259;-77
2023/06/17 06:35:17;;;;;;;4.75;3.90;;;22.70;52.60;;;;;;5132919;28;20212;-78
2023/06/17 06:37:44;;;;;;;5.53;4.28;;;22.70;52.60;;;;;;5132788;28;20213;-78
2023/06/17 06:40:12;;;;;;;4.53;3.83;;;22.70;52.70;;;;;;5132428;28;20304;-78
2023/06/17 06:42:40;;;;;;;4.40;4.00;;;22.70;52.70;;;;;;5132357;28;20199;-77
2023/06/17 06:45:08;;;;;;;4.45;3.90;;;22.70;52.70;;;;;;5132338;28;20245;-77
2023/06/17 06:47:35;;;;;;;4.63;3.83;;;22.70;52.70;;;;;;5117077;28;20571;-78
2023/06/17 06:50:03;;;;;;;5.65;4.35;;;22.70;52.70;;;;;;5132563;28;20876;-77
2023/06/17 06:52:30;;;;;;;4.55;4.15;;;22.70;52.80;;;;;;5132557;28;20287;-77
2023/06/17 06:54:57;;;;;;;6.43;3.70;;;22.70;52.80;;;;;;5132576;28;20216;-78
2023/06/17 06:57:24;;;;;;;5.30;3.90;;;22.70;52.80;;;;;;5132664;28;20227;-77
2023/06/17 06:59:51;;;;;;;4.00;3.60;;;22.70;52.90;;;;;;5132606;28;20299;-77
2023/06/17 07:02:18;;;;;;;6.30;4.35;;;22.70;52.90;;;;;;5132580;28;20189;-77
2023/06/17 07:04:45;;;;;;;4.10;3.70;;;22.70;52.90;;;;;;5132840;27;20213;-77
2023/06/17 07:07:14;;;;;;;5.03;4.20;;;22.70;53.00;;;;;;5136582;27;20212;-78
2023/06/17 07:09:41;;;;;;;5.35;4.40;;;22.70;52.90;;;;;;5136339;27;20205;-77
2023/06/17 07:12:08;;;;;;;5.32;4.00;;;22.70;53.00;;;;;;5136295;27;20592;-77
2023/06/17 07:14:35;;;;;;;4.82;4.18;;;22.70;53.00;;;;;;5135952;27;20300;-77
2023/06/17 07:17:02;;;;;;;6.78;4.28;;;22.70;53.10;;;;;;5136320;27;20188;-78
2023/06/17 07:19:29;;;;;;;6.50;4.35;;;22.70;53.10;;;;;;5135865;27;20263;-78
2023/06/17 07:21:56;;;;;;;6.22;4.30;;;22.70;53.20;;;;;;5136246;27;20241;-78
2023/06/17 07:24:24;;;;;;;8.70;4.22;;;22.70;53.20;;;;;;5135388;27;20255;-77
2023/06/17 07:26:51;;;;;;;4.78;3.83;;;22.70;53.20;;;;;;5135883;27;20720;-78
2023/06/17 07:29:18;;;;;;;4.60;3.92;;;22.70;53.10;;;;;;5136137;27;20198;-76
2023/06/17 07:31:45;;;;;;;5.60;3.83;;;22.70;53.10;;;;;;5135997;27;20259;-77
2023/06/17 07:34:12;;;;;;;5.28;4.68;;;22.70;53.20;;;;;;5135911;27;20216;-78
2023/06/17 07:36:39;;;;;;;4.95;4.43;;;22.70;53.20;;;;;;5136431;27;20251;-77
2023/06/17 07:39:07;;;;;;;4.75;4.00;;;22.70;53.20;;;;;;5135801;27;20269;-77
2023/06/17 07:41:36;;;;;;;8.07;3.83;;;22.70;53.20;;;;;;5136136;27;20220;-77
2023/06/17 07:44:03;;;;;;;5.55;4.00;;;22.70;53.20;;;;;;5135109;27;20271;-77
2023/06/17 07:46:31;;;;;;;4.50;3.92;;;22.70;53.20;;;;;;5135494;27;20208;-77
2023/06/17 07:48:58;;;;;;;5.20;4.18;;;22.70;53.20;;;;;;5135592;27;20267;-78
2023/06/17 07:51:25;;;;;;;4.72;4.22;;;22.70;53.20;;;;;;5135432;27;20314;-77
2023/06/17 07:53:52;;;;;;;5.13;4.40;;;22.70;53.20;;;;;;5135171;27;20216;-77
2023/06/17 07:56:20;;;;;;;6.15;4.13;;;22.70;53.20;;;;;;5135944;27;20259;-77
2023/06/17 07:58:49;;;;;;;4.82;4.05;;;22.70;53.30;;;;;;5135190;27;20189;-78
2023/06/17 08:01:16;;;;;;;4.63;3.97;;;22.70;53.40;;;;;;5135188;27;20266;-77
2023/06/17 08:03:43;;;;;;;6.45;4.40;;;22.70;53.30;;;;;;5135142;27;20189;-77
2023/06/17 08:06:13;;;;;;;4.55;3.55;;;22.70;53.30;;;;;;5135561;27;20259;-78
2023/06/17 08:08:40;;;;;;;3.92;3.50;;;22.70;53.40;;;;;;5134934;27;20223;-77
2023/06/17 08:11:07;;;;;;;6.55;4.22;;;22.70;53.40;;;;;;5135360;27;20260;-77
2023/06/17 08:13:34;;;;;;;5.00;4.07;;;22.70;53.50;;;;;;5134914;27;20177;-77
2023/06/17 08:16:03;;;;;;;4.60;4.07;;;22.70;53.50;;;;;;5135010;27;20255;-78
2023/06/17 08:18:30;;;;;;;7.75;5.20;;;22.70;53.50;;;;;;5134414;27;20185;-77
2023/06/17 08:20:57;;;;;;;5.13;4.25;;;22.70;53.50;;;;;;5135429;27;20247;-77
2023/06/17 08:23:23;;;;;;;6.13;5.05;;;22.70;53.50;;;;;;5134840;27;20231;-78
2023/06/17 08:25:50;;;;;;;6.45;4.93;;;22.70;53.50;;;;;;5135225;27;20220;-78
2023/06/17 08:28:17;;;;;;;7.80;4.85;;;22.70;53.50;;;;;;5134679;27;20181;-78
2023/06/17 08:30:45;;;;;;;5.90;4.72;;;22.70;53.40;;;;;;5134661;27;20311;-78
2023/06/17 08:33:15;;;;;;;7.10;4.40;;;22.70;53.40;;;;;;5134247;27;20740;-78
2023/06/17 08:35:41;;;;;;;5.75;4.53;;;22.70;53.30;;;;;;5134797;27;20208;-78
2023/06/17 08:38:08;;;;;;;7.82;4.40;;;22.70;53.30;;;;;;5134661;27;20264;-77
2023/06/17 08:40:37;;;;;;;6.45;4.85;;;22.70;53.30;;;;;;5134756;27;20248;-78
2023/06/17 08:43:04;;;;;;;7.82;4.97;;;22.70;53.40;;;;;;5134145;27;20185;-78
2023/06/17 08:45:31;;;;;;;7.07;4.47;;;22.70;53.40;;;;;;5133875;27;20212;-78
2023/06/17 08:47:58;;;;;;;6.57;4.60;;;22.70;53.30;;;;;;5134010;27;20224;-77
2023/06/17 08:50:28;;;;;;;6.50;4.57;;;22.70;53.30;;;;;;5134638;27;20299;-77
2023/06/17 08:52:56;;;;;;;6.95;4.72;;;22.70;53.30;;;;;;5133992;27;20303;-77
2023/06/17 08:55:23;;;;;;;6.30;4.55;;;22.70;53.20;;;;;;5134584;27;20307;-78
2023/06/17 08:57:51;;;;;;;5.22;4.13;;;22.70;53.20;;;;;;5134590;27;20728;-77
2023/06/17 09:00:19;;;;;;;5.25;4.10;;;22.70;53.20;;;;;;5134319;27;20216;-77
2023/06/17 09:02:47;;;;;;;6.22;4.82;;;22.70;53.30;;;;;;5133953;27;20677;-77
2023/06/17 09:05:14;;;;;;;6.50;4.65;;;22.70;53.20;;;;;;5134009;27;20254;-78
2023/06/17 09:07:42;;;;;;;7.10;5.00;;;22.70;53.20;;;;;;5134004;27;20196;-77
2023/06/17 09:10:10;;;;;;;5.20;4.63;;;22.70;53.20;;;;;;5133857;27;20244;-78
2023/06/17 09:12:38;;;;;;;6.55;4.60;;;22.70;53.20;;;;;;5134101;27;20303;-77
2023/06/17 09:15:07;;;;;;;5.57;4.57;;;22.70;53.20;;;;;;5133659;27;20721;-76
2023/06/17 09:17:34;;;;;;;8.05;5.15;;;22.80;53.30;;;;;;5133570;27;20647;-77
2023/06/17 09:20:11;;;;;;;5.90;4.88;;;22.70;53.20;;;;;;5133771;27;20299;-78
2023/06/17 09:22:44;;;;;;;6.50;4.95;;;22.70;53.20;;;;;;5133835;27;20226;-77
2023/06/17 09:25:13;;;;;;;5.97;4.32;;;22.70;53.20;;;;;;5133544;27;20575;-78
2023/06/17 09:27:47;;;;;;;8.13;4.70;;;22.70;53.20;;;;;;5133799;27;20287;-77
2023/06/17 09:30:15;;;;;;;4.82;4.32;;;22.70;53.20;;;;;;5133667;27;20218;-78
2023/06/17 09:32:44;;;;;;;7.13;4.93;;;22.70;53.20;;;;;;5133587;27;20212;-77
2023/06/17 09:35:15;;;;;;;7.68;4.43;;;22.70;53.20;;;;;;5133413;27;20247;-77
2023/06/17 09:37:45;;;;;;;6.25;4.97;;;22.70;53.20;;;;;;5133585;27;20185;-77
2023/06/17 09:40:13;;;;;;;5.20;4.70;;;22.70;53.20;;;;;;5133371;27;20212;-78
2023/06/17 09:42:40;;;;;;;6.63;4.80;;;22.80;53.40;;;;;;5133294;27;20192;-77
2023/06/17 09:45:12;;;;;;;5.97;4.78;;;22.70;53.30;;;;;;5133081;27;20255;-77
2023/06/17 09:47:40;;;;;;;10.98;4.57;;;22.70;53.40;;;;;;5113488;28;20197;-77
2023/06/17 09:50:10;;;;;;;7.72;4.95;;;22.70;53.40;;;;;;5128848;27;20295;-78
2023/06/17 09:52:39;;;;;;;5.93;4.43;;;22.70;53.40;;;;;;5133064;27;20217;-77
2023/06/17 09:55:09;;;;;;;6.00;4.25;;;22.80;53.50;;;;;;5133220;27;20251;-77
2023/06/17 09:57:39;;;;;;;7.07;4.63;;;22.80;53.50;;;;;;5133135;27;20733;-78
2023/06/17 10:00:10;;;;;;;10.95;4.47;;;22.80;53.50;;;;;;5132831;27;20685;-77
2023/06/17 10:02:39;;;;;;;5.95;4.30;;;22.80;53.50;;;;;;5133024;27;20204;-78
2023/06/17 10:05:07;;;;;;;5.55;4.20;;;22.80;53.60;;;;;;5132991;27;20216;-77
2023/06/17 10:07:35;;;;;;;6.40;4.60;;;22.80;53.70;;;;;;5132976;27;20275;-77
2023/06/17 10:10:02;;;;;;;7.53;4.85;;;22.80;53.60;;;;;;5133033;27;20294;-77
2023/06/17 10:12:32;;;;;;;6.88;4.88;;;22.80;53.60;;;;;;5132928;27;20216;-78
2023/06/17 10:15:00;;;;;;;4.75;4.25;;;22.80;53.60;;;;;;5132626;27;20778;-77
2023/06/17 10:17:29;;;;;;;6.18;4.70;;;22.80;54.30;;;;;;5132628;27;20708;-77
2023/06/17 10:19:57;;;;;;;4.85;4.18;;;22.80;53.60;;;;;;5132741;27;20189;-77
2023/06/17 10:22:25;;;;;;;5.85;4.38;;;22.80;53.60;;;;;;5132819;27;20757;-77
2023/06/17 10:24:52;;;;;;;5.07;4.57;;;22.80;53.60;;;;;;5132688;28;20188;-77
2023/06/17 10:27:20;;;;;;;6.75;4.60;;;22.80;53.70;;;;;;5133281;28;20287;-77
2023/06/17 10:29:50;;;;;;;5.57;4.57;;;22.80;53.70;;;;;;5132436;28;20189;-78
2023/06/17 10:32:22;;;;;;;6.70;4.47;;;22.80;53.70;;;;;;5132832;28;20228;-78
2023/06/17 10:35:09;;;;;;;5.32;4.80;;;22.80;53.70;;;;;;5132704;28;20185;-78
2023/06/17 10:37:40;;;;;;;5.90;4.55;;;22.80;53.70;;;;;;5132664;28;20207;-79
2023/06/17 10:40:25;;;;;;;6.32;4.78;;;22.80;53.80;;;;;;5133416;27;20219;-77
2023/06/17 10:43:14;;;;;;;5.60;4.47;;;22.80;53.80;;;;;;5136986;27;20184;-78
2023/06/17 10:45:49;;;;;;;6.25;4.63;;;22.80;53.90;;;;;;5136448;27;20210;-77
2023/06/17 10:48:17;;;;;;;7.32;4.50;;;22.80;53.90;;;;;;5136953;27;20275;-78
2023/06/17 10:50:47;;;;;;;5.85;4.18;;;22.80;53.90;;;;;;5136973;27;20365;-78
2023/06/17 10:53:16;;;;;;;6.05;5.45;;;22.80;53.90;;;;;;5136878;27;20573;-77
2023/06/17 10:55:43;;;;;;;8.05;5.07;;;22.80;54.00;;;;;;5136584;27;20223;-77
2023/06/17 10:58:10;;;;;;;5.45;4.78;;;22.80;53.90;;;;;;5137339;27;20280;-77
2023/06/17 11:00:37;;;;;;;6.18;5.00;;;22.80;53.90;;;;;;5136636;27;20240;-77
2023/06/17 11:03:08;;;;;;;8.65;5.55;;;22.80;54.00;;;;;;5136765;27;20195;-77
2023/06/17 11:05:36;;;;;;;7.05;5.60;;;22.80;54.00;;;;;;5136214;27;20299;-77
2023/06/17 11:08:04;;;;;;;11.43;5.85;;;22.80;54.00;;;;;;5136630;27;20188;-78
2023/06/17 11:10:31;;;;;;;7.82;5.88;;;22.80;54.00;;;;;;5136187;27;20212;-77
2023/06/17 11:12:58;;;;;;;9.52;5.35;;;22.80;54.10;;;;;;5136211;27;20743;-77
2023/06/17 11:15:25;;;;;;;6.78;5.53;;;22.80;54.00;;;;;;5136354;27;20317;-77
2023/06/17 11:18:00;;;;;;;12.65;5.65;;;22.80;54.00;;;;;;5136635;27;20276;-77
2023/06/17 11:20:30;;;;;;;9.02;5.22;;;22.80;54.10;;;;;;5136002;27;20216;-78
2023/06/17 11:22:57;;;;;;;7.00;5.50;;;22.80;54.10;;;;;;5136003;27;20312;-77
2023/06/17 11:25:24;;;;;;;8.77;5.25;;;22.90;54.20;;;;;;5136330;27;20300;-77
2023/06/17 11:27:51;;;;;;;7.80;5.32;;;22.80;54.20;;;;;;5135968;27;20275;-77
2023/06/17 11:30:19;;;;;;;9.18;5.82;;;22.80;54.10;;;;;;5135691;27;20781;-77
2023/06/17 11:32:46;;;;;;;7.88;5.20;;;22.80;54.20;;;;;;5136185;27;20220;-77
2023/06/17 11:35:14;;;;;;;8.07;5.30;;;22.90;54.30;;;;;;5135658;27;20683;-77
2023/06/17 11:37:43;;;;;;;6.13;5.28;;;22.90;54.30;;;;;;5135728;27;20220;-77
2023/06/17 11:40:12;;;;;;;7.80;5.55;;;22.80;54.20;;;;;;5135316;27;20208;-77
2023/06/17 11:42:40;;;;;;;7.53;5.78;;;22.80;54.20;;;;;;5135851;27;20195;-77
2023/06/17 11:45:08;;;;;;;9.07;5.90;;;22.90;54.30;;;;;;5135561;27;20196;-77
2023/06/17 11:47:36;;;;;;;7.05;5.25;;;22.80;54.30;;;;;;5115219;28;20197;-78
2023/06/17 11:50:05;;;;;;;7.60;5.50;;;22.80;54.20;;;;;;5123464;27;20180;-77
2023/06/17 11:52:34;;;;;;;9.23;5.70;;;22.90;54.30;;;;;;5135441;27;20208;-78
2023/06/17 11:55:03;;;;;;;8.70;5.80;;;22.80;54.90;;;;;;5134971;27;20638;-76
2023/06/17 11:57:32;;;;;;;8.35;6.03;;;22.90;54.30;;;;;;5135329;27;20188;-77
2023/06/17 12:00:03;;;;;;;7.50;5.50;;;23.00;54.30;;;;;;5134615;27;20187;-78
2023/06/17 12:02:32;;;;;;;8.50;5.32;;;23.00;54.40;;;;;;5126418;27;20759;-77
2023/06/17 12:05:01;;;;;;;8.90;5.43;;;23.10;54.60;;;;;;5112831;27;20197;-77
2023/06/17 12:07:29;;;;;;;11.48;5.40;;;23.10;54.50;;;;;;5134198;27;20564;-77
2023/06/17 12:09:56;;;;;;;6.82;5.25;;;23.10;54.40;;;;;;5124265;27;20220;-80
2023/06/17 12:12:32;;;;;;;8.05;5.50;;;23.20;54.50;;;;;;5117829;27;20192;-80
2023/06/17 12:15:04;;;;;;;9.82;5.95;;;23.20;54.50;;;;;;5118292;27;20196;-79
2023/06/17 12:17:38;;;;;;;7.93;5.28;;;23.20;54.50;;;;;;5126477;27;20287;-77
2023/06/17 12:20:07;;;;;;;12.00;5.95;;;23.30;54.60;;;;;;5132225;27;20209;-80
2023/06/17 12:22:34;;;;;;;8.50;5.70;;;23.30;54.60;;;;;;5123137;27;20223;-82
2023/06/17 12:25:02;;;;;;;8.70;5.75;;;23.40;54.60;;;;;;5129830;27;20276;-82
2023/06/17 12:27:33;;;;;;;9.60;5.93;;;23.40;54.60;;;;;;5130172;27;20201;-81
2023/06/17 12:30:00;;;;;;;10.90;5.72;;;23.40;54.60;;;;;;5130334;27;20192;-82
2023/06/17 12:32:28;;;;;;;11.40;6.28;;;23.40;54.70;;;;;;5121930;27;20671;-84
2023/06/17 12:34:55;;;;;;;7.88;5.90;;;23.50;54.80;;;;;;5128957;27;20211;-79
2023/06/17 12:37:27;;;;;;;11.82;6.20;;;23.50;54.70;;;;;;5126021;27;20199;-83
2023/06/17 12:39:57;;;;;;;12.75;6.32;;;23.50;54.80;;;;;;5131058;27;20710;-84
2023/06/17 12:42:30;;;;;;;14.55;5.95;;;23.60;54.80;;;;;;5120498;27;20205;-82
2023/06/17 12:44:59;;;;;;;9.02;5.95;;;23.60;54.90;;;;;;5121230;27;20843;-81
2023/06/17 12:47:26;;;;;;;10.07;6.28;;;23.60;54.90;;;;;;5128689;27;20288;-82
2023/06/17 12:49:53;;;;;;;8.93;6.03;;;23.60;54.90;;;;;;5128258;27;20220;-83